Time;durP1;ratioP1;P1;durP2;ratioP2;P2;SDS_P1;SDS_P2;PMS_P1;PMS_P2;Temp;Humidity;BMP_temperature;BMP_pressure;BME280_temperature;BME280_humidity;BME280_pressure;Samples;Min_cycle;Max_cycle;Signal;HPM_P1;HPM_P2
2023/08/28 00:01:51;;;;;;;6.32;4.32;;;;;;;12.36;100.00;101103.09;5050246;28;20020;-79
2023/08/28 00:04:17;;;;;;;4.68;4.28;;;;;;;12.33;100.00;101102.50;5047302;28;20060;-79
2023/08/28 00:06:42;;;;;;;5.25;4.25;;;;;;;12.38;100.00;101106.47;5025583;28;20037;-79
2023/08/28 00:09:10;;;;;;;6.93;4.65;;;;;;;12.32;100.00;101106.94;5037298;28;20432;-81
2023/08/28 00:11:36;;;;;;;5.55;4.45;;;;;;;12.33;100.00;101100.72;5048278;28;20032;-81
2023/08/28 00:14:01;;;;;;;8.75;4.70;;;;;;;12.29;100.00;101108.97;5050525;28;20544;-81
2023/08/28 00:16:26;;;;;;;6.75;4.85;;;;;;;12.28;100.00;101100.22;5050662;28;20626;-81
2023/08/28 00:18:52;;;;;;;6.55;4.65;;;;;;;12.29;100.00;101101.91;5049867;28;20476;-81
2023/08/28 00:21:18;;;;;;;6.18;4.28;;;;;;;12.29;100.00;101096.63;5049144;28;20124;-81
2023/08/28 00:23:43;;;;;;;4.80;4.40;;;;;;;12.22;100.00;101095.44;5035884;28;20050;-79
2023/08/28 00:26:09;;;;;;;4.78;4.28;;;;;;;12.24;100.00;101089.06;5042619;28;20028;-79
2023/08/28 00:28:34;;;;;;;5.55;4.60;;;;;;;12.23;100.00;101086.56;5031705;28;20061;-81
2023/08/28 00:31:03;;;;;;;5.45;4.75;;;;;;;12.14;100.00;101087.25;5029410;28;20432;-81
2023/08/28 00:33:28;;;;;;;5.40;4.90;;;;;;;12.15;100.00;101088.94;5061466;28;20083;-81
2023/08/28 00:35:53;;;;;;;5.15;4.68;;;;;;;12.13;100.00;101091.69;5026186;28;20029;-81
2023/08/28 00:38:19;;;;;;;5.25;4.78;;;;;;;12.15;100.00;101086.31;5031752;28;20100;-81
2023/08/28 00:40:44;;;;;;;6.88;5.40;;;;;;;12.06;100.00;101084.38;5039663;28;20032;-79
2023/08/28 00:43:09;;;;;;;5.28;4.78;;;;;;;12.08;100.00;101082.47;5046071;28;20036;-78
2023/08/28 00:45:39;;;;;;;5.95;5.03;;;;;;;12.03;100.00;101081.97;5029483;28;20029;-79
2023/08/28 00:48:05;;;;;;;7.63;5.07;;;;;;;12.00;100.00;101079.53;5031219;28;20045;-79
2023/08/28 00:50:31;;;;;;;5.18;4.68;;;;;;;11.99;100.00;101078.72;5027019;28;20112;-79
2023/08/28 00:52:56;;;;;;;5.60;4.70;;;;;;;11.95;100.00;101090.44;5029075;28;20389;-79
2023/08/28 00:55:23;;;;;;;4.80;4.38;;;;;;;11.97;100.00;101085.91;5033282;28;20025;-79
2023/08/28 00:57:48;;;;;;;6.40;4.40;;;;;;;11.91;100.00;101081.94;5020696;28;20490;-79
2023/08/28 01:00:15;;;;;;;6.00;4.65;;;;;;;11.88;100.00;101090.06;5045619;28;20036;-79
2023/08/28 01:02:40;;;;;;;6.95;4.93;;;;;;;11.86;100.00;101088.50;5046229;28;20025;-79
2023/08/28 01:05:06;;;;;;;7.53;5.07;;;;;;;11.83;100.00;101086.94;5032958;28;20029;-79
2023/08/28 01:07:54;;;;;;;5.38;4.68;;;;;;;11.82;100.00;101087.91;5036202;28;20481;-79
2023/08/28 01:10:32;;;;;;;5.80;4.82;;;;;;;11.80;100.00;101081.91;5027720;28;20465;-79
2023/08/28 01:13:22;;;;;;;5.63;5.10;;;;;;;11.82;100.00;101087.91;5028941;28;20025;-79
2023/08/28 01:15:49;;;;;;;6.72;5.40;;;;;;;11.76;100.00;101088.34;5011944;28;20036;-79
2023/08/28 01:18:16;;;;;;;6.65;5.85;;;;;;;11.75;100.00;101086.66;5009399;28;20049;-79
2023/08/28 01:20:46;;;;;;;7.07;6.05;;;;;;;11.78;100.00;101089.09;5009491;28;20112;-79
2023/08/28 01:23:31;;;;;;;8.70;6.50;;;;;;;11.80;100.00;101079.28;5009189;28;20095;-79
2023/08/28 01:25:58;;;;;;;9.05;6.45;;;;;;;11.78;100.00;101081.19;5023406;28;20021;-80
2023/08/28 01:28:25;;;;;;;9.70;6.47;;;;;;;11.76;100.00;101076.94;5049292;28;20025;-80
2023/08/28 01:30:51;;;;;;;8.05;6.93;;;;;;;11.78;100.00;101075.91;5029914;28;20033;-79
2023/08/28 01:33:17;;;;;;;8.23;6.85;;;;;;;11.75;100.00;101070.84;5049385;28;20021;-79
2023/08/28 01:36:03;;;;;;;8.07;6.65;;;;;;;11.69;100.00;101070.47;5042826;28;20477;-79
2023/08/28 01:38:34;;;;;;;7.70;6.78;;;;;;;11.75;100.00;101076.13;5037353;28;20029;-80
2023/08/28 01:41:10;;;;;;;10.98;6.97;;;;;;;11.71;100.00;101071.19;5049310;28;20381;-79
2023/08/28 01:43:37;;;;;;;7.07;6.30;;;;;;;11.74;100.00;101076.22;5044242;28;20425;-80
2023/08/28 01:46:03;;;;;;;9.85;6.97;;;;;;;11.67;100.00;101065.31;5047801;28;20434;-79
2023/08/28 01:48:29;;;;;;;8.50;6.63;;;;;;;11.63;100.00;101055.97;5027768;28;20054;-79
2023/08/28 01:50:55;;;;;;;7.18;6.47;;;;;;;11.65;100.00;101059.31;5037156;28;20393;-79
2023/08/28 01:53:21;;;;;;;6.95;6.28;;;;;;;11.58;100.00;101050.16;5049412;28;20021;-79
2023/08/28 01:56:14;;;;;;;7.65;6.30;;;;;;;11.59;100.00;101054.47;5049350;28;20029;-80
2023/08/28 01:58:43;;;;;;;9.88;6.68;;;;;;;11.60;100.00;101056.16;5017077;28;20399;-79
2023/08/28 02:01:08;;;;;;;7.50;6.30;;;;;;;11.51;100.00;101048.94;5047921;28;20369;-79
2023/08/28 02:03:34;;;;;;;7.28;6.55;;;;;;;11.51;100.00;101046.31;5049492;28;20033;-79
2023/08/28 02:05:59;;;;;;;7.82;6.95;;;;;;;11.49;100.00;101051.69;5032779;28;20037;-79
2023/08/28 02:08:25;;;;;;;8.05;7.00;;;;;;;11.41;100.00;101045.31;5032345;28;20021;-79
2023/08/28 02:10:52;;;;;;;8.50;6.65;;;;;;;11.44;100.00;101039.81;5031202;28;20040;-79
2023/08/28 02:13:17;;;;;;;8.60;6.85;;;;;;;11.39;100.00;101034.06;5050695;28;20028;-79
2023/08/28 02:15:42;;;;;;;9.00;7.55;;;;;;;11.41;100.00;101035.63;5049583;28;20116;-79
2023/08/28 02:18:08;;;;;;;8.25;7.45;;;;;;;11.41;100.00;101040.06;5051593;28;20180;-79
2023/08/28 02:20:33;;;;;;;8.85;7.55;;;;;;;11.36;100.00;101037.75;5052689;28;20487;-79
2023/08/28 02:22:59;;;;;;;7.78;6.93;;;;;;;11.38;100.00;101040.28;5039738;28;20029;-79
2023/08/28 02:25:24;;;;;;;10.05;7.50;;;;;;;11.32;100.00;101046.84;5027435;28;20108;-80
2023/08/28 02:27:50;;;;;;;9.52;7.90;;;;;;;11.35;100.00;101045.78;5037556;28;20355;-79
2023/08/28 02:30:17;;;;;;;10.13;7.65;;;;;;;11.35;100.00;101051.06;5032165;28;20014;-79
2023/08/28 02:32:42;;;;;;;8.07;7.38;;;;;;;11.33;100.00;101052.97;5037824;28;20030;-79
2023/08/28 02:35:09;;;;;;;9.10;7.70;;;;;;;11.36;100.00;101052.72;5049160;28;20444;-79
2023/08/28 02:37:34;;;;;;;8.85;7.97;;;;;;;11.30;100.00;101052.22;5048060;28;20496;-79
2023/08/28 02:40:00;;;;;;;10.65;8.13;;;;;;;11.24;100.00;101044.78;5031865;28;20030;-79
2023/08/28 02:42:25;;;;;;;10.00;8.07;;;;;;;11.33;100.00;101042.41;5058255;28;20032;-79
2023/08/28 02:44:50;;;;;;;8.77;7.95;;;;;;;11.25;100.00;101030.66;5027683;28;20025;-79
2023/08/28 02:47:16;;;;;;;10.35;8.02;;;;;;;11.32;100.00;101051.28;5045397;28;20037;-79
2023/08/28 02:49:41;;;;;;;10.70;8.65;;;;;;;11.33;100.00;101045.91;5046689;28;20037;-79
2023/08/28 02:52:10;;;;;;;9.55;8.40;;;;;;;11.36;100.00;101053.56;5049440;28;20020;-79
2023/08/28 02:54:35;;;;;;;9.15;8.20;;;;;;;11.35;100.00;101056.31;5032104;28;20108;-79
2023/08/28 02:57:00;;;;;;;9.63;8.73;;;;;;;11.36;100.00;101063.25;5056523;28;20136;-79
2023/08/28 02:59:27;;;;;;;9.18;8.27;;;;;;;11.33;100.00;101058.22;5030235;28;20021;-79
2023/08/28 03:01:53;;;;;;;8.68;7.88;;;;;;;11.27;100.00;101057.72;5031214;28;20025;-79
2023/08/28 03:04:19;;;;;;;8.38;7.57;;;;;;;11.28;100.00;101059.41;5042376;28;20029;-79
2023/08/28 03:06:44;;;;;;;10.00;8.32;;;;;;;11.18;100.00;101054.91;5042346;28;20040;-79
2023/08/28 03:09:10;;;;;;;9.85;7.75;;;;;;;11.25;100.00;101057.00;5027465;28;20051;-79
2023/08/28 03:11:36;;;;;;;10.13;9.00;;;;;;;11.19;100.00;101072.38;5029802;28;20076;-79
2023/08/28 03:14:01;;;;;;;10.52;8.40;;;;;;;11.22;100.00;101072.19;5027930;28;20414;-79
2023/08/28 03:16:27;;;;;;;11.50;9.20;;;;;;;11.25;100.00;101062.28;5033192;28;20280;-79
2023/08/28 03:18:52;;;;;;;10.85;8.88;;;;;;;11.25;100.00;101072.81;5033838;28;20029;-79
2023/08/28 03:21:18;;;;;;;10.18;9.25;;;;;;;11.24;100.00;101065.03;5021926;28;20053;-82
2023/08/28 03:23:43;;;;;;;10.98;8.68;;;;;;;11.19;100.00;101067.97;5025625;28;20381;-82
2023/08/28 03:26:09;;;;;;;10.40;9.07;;;;;;;11.19;100.00;101067.97;5047872;28;20036;-79
2023/08/28 03:28:34;;;;;;;10.20;9.07;;;;;;;11.20;100.00;101074.91;5043630;28;20055;-79
2023/08/28 03:31:00;;;;;;;11.73;9.63;;;;;;;11.21;100.00;101078.41;5024299;28;20083;-79
2023/08/28 03:33:27;;;;;;;14.43;9.27;;;;;;;11.23;100.00;101072.06;5029826;28;20025;-82
2023/08/28 03:35:53;;;;;;;11.02;10.02;;;;;;;11.29;100.00;101076.88;5032116;28;20051;-80
2023/08/28 03:38:18;;;;;;;11.00;10.00;;;;;;;11.36;100.00;101081.72;5048674;28;20029;-80
2023/08/28 03:40:44;;;;;;;11.85;10.65;;;;;;;11.34;100.00;101078.34;5029965;28;20052;-80
2023/08/28 03:43:10;;;;;;;11.57;10.38;;;;;;;11.35;100.00;101091.41;5047467;28;20115;-81
2023/08/28 03:45:35;;;;;;;11.73;10.55;;;;;;;11.42;100.00;101095.25;5042558;28;20047;-80
2023/08/28 03:48:01;;;;;;;13.10;10.57;;;;;;;11.41;100.00;101092.75;5034584;28;20576;-80
2023/08/28 03:50:29;;;;;;;11.80;10.55;;;;;;;11.41;100.00;101092.75;5038594;28;20029;-81
2023/08/28 03:52:56;;;;;;;12.02;10.77;;;;;;;11.46;100.00;101095.88;5031112;28;20021;-80
2023/08/28 03:55:21;;;;;;;11.27;10.25;;;;;;;11.45;100.00;101092.41;5046009;28;20024;-81
2023/08/28 03:57:46;;;;;;;12.07;10.80;;;;;;;11.45;100.00;101102.09;5043587;28;20493;-81
2023/08/28 04:00:14;;;;;;;11.75;10.52;;;;;;;11.49;100.00;101106.19;5039534;28;20018;-81
2023/08/28 04:02:40;;;;;;;12.20;11.00;;;;;;;11.49;100.00;101117.56;5032667;28;20102;-81
2023/08/28 04:05:06;;;;;;;12.35;10.98;;;;;;;11.55;100.00;101111.00;5023482;28;20071;-81
2023/08/28 04:07:32;;;;;;;12.88;11.13;;;;;;;11.54;100.00;101110.16;5030222;28;20439;-80
2023/08/28 04:09:58;;;;;;;14.57;10.88;;;;;;;11.63;100.00;101116.56;5029971;28;20100;-81
2023/08/28 04:12:23;;;;;;;13.55;12.15;;;;;;;11.62;100.00;101112.25;5035315;28;20079;-81
2023/08/28 04:14:49;;;;;;;13.30;12.00;;;;;;;11.66;100.00;101113.72;5048093;28;20029;-81
2023/08/28 04:17:15;;;;;;;13.20;11.52;;;;;;;11.68;100.00;101117.06;5049308;28;20036;-81
2023/08/28 04:19:44;;;;;;;13.75;12.35;;;;;;;11.68;100.00;101114.44;5035201;28;20025;-81
2023/08/28 04:22:09;;;;;;;14.30;12.60;;;;;;;11.70;100.00;101120.44;5024661;28;20026;-80
2023/08/28 04:24:34;;;;;;;14.02;12.60;;;;;;;11.72;100.00;101118.53;5028091;28;20032;-81
2023/08/28 04:27:00;;;;;;;14.68;12.68;;;;;;;11.72;100.00;101115.88;5028686;28;20024;-82
2023/08/28 04:29:25;;;;;;;14.35;12.80;;;;;;;11.71;100.00;101124.75;5032242;28;20112;-81
2023/08/28 04:31:52;;;;;;;17.83;13.10;;;;;;;11.76;100.00;101119.97;5026879;28;20537;-81
2023/08/28 04:34:18;;;;;;;14.57;12.93;;;;;;;11.80;100.00;101116.19;5029513;28;20029;-81
2023/08/28 04:36:43;;;;;;;14.00;12.50;;;;;;;11.83;100.00;101121.22;5019915;28;20117;-81
2023/08/28 04:39:08;;;;;;;14.10;12.68;;;;;;;11.85;100.00;101127.22;5026157;28;20021;-80
2023/08/28 04:41:34;;;;;;;13.75;12.35;;;;;;;11.89;100.00;101115.47;5060914;28;20065;-80
2023/08/28 04:43:59;;;;;;;14.40;12.98;;;;;;;11.92;100.00;101124.97;5029689;28;20029;-80
2023/08/28 04:46:25;;;;;;;14.50;12.77;;;;;;;11.94;100.00;101125.69;5033564;28;20086;-80
2023/08/28 04:48:51;;;;;;;13.63;12.35;;;;;;;11.98;100.00;101116.59;5048160;28;20025;-80
2023/08/28 04:51:16;;;;;;;16.55;13.15;;;;;;;11.98;100.00;101121.84;5046415;28;20033;-81
2023/08/28 04:53:42;;;;;;;14.93;13.55;;;;;;;12.00;100.00;101111.19;5035821;28;20113;-80
2023/08/28 04:56:08;;;;;;;14.50;13.00;;;;;;;12.03;100.00;101110.97;5025918;28;20026;-80
2023/08/28 04:58:34;;;;;;;15.20;12.95;;;;;;;12.04;100.00;101102.13;5043746;28;20025;-80
2023/08/28 05:01:00;;;;;;;15.27;13.52;;;;;;;12.06;100.00;101100.19;5041752;28;20552;-81
2023/08/28 05:03:26;;;;;;;14.35;12.85;;;;;;;12.11;100.00;101103.31;5032707;28;20028;-80
2023/08/28 05:05:51;;;;;;;14.30;12.88;;;;;;;12.12;100.00;101099.72;5049254;28;20107;-80
2023/08/28 05:08:17;;;;;;;14.75;12.77;;;;;;;12.13;100.00;101091.69;5049465;28;20440;-80
2023/08/28 05:10:42;;;;;;;14.82;12.57;;;;;;;12.17;100.00;101095.78;5030929;28;20029;-81
2023/08/28 05:13:08;;;;;;;13.88;12.45;;;;;;;12.21;100.00;101099.03;5029977;28;20024;-81
2023/08/28 05:15:33;;;;;;;15.93;13.25;;;;;;;12.26;100.00;101096.88;5043767;28;20440;-81
2023/08/28 05:17:59;;;;;;;12.95;11.75;;;;;;;12.29;100.00;101091.34;5036430;28;20407;-81
2023/08/28 05:20:25;;;;;;;14.13;12.63;;;;;;;12.33;100.00;101099.88;5048612;28;20078;-81
2023/08/28 05:22:51;;;;;;;13.95;12.23;;;;;;;12.33;100.00;101092.78;5030546;28;20061;-80
2023/08/28 05:25:17;;;;;;;13.90;12.30;;;;;;;12.36;100.00;101095.19;5046014;28;20060;-80
2023/08/28 05:27:43;;;;;;;14.00;12.60;;;;;;;12.42;100.00;101096.53;5027028;28;20037;-81
2023/08/28 05:30:09;;;;;;;15.15;12.43;;;;;;;12.43;100.00;101099.06;5047634;28;20029;-81
2023/08/28 05:32:34;;;;;;;14.57;13.05;;;;;;;12.59;100.00;101103.13;5042056;28;20501;-81
2023/08/28 05:35:00;;;;;;;14.35;12.88;;;;;;;12.72;100.00;101091.47;5047348;28;20060;-81
2023/08/28 05:37:25;;;;;;;14.13;12.02;;;;;;;12.76;100.00;101092.06;5041536;28;20033;-81
2023/08/28 05:39:52;;;;;;;14.50;12.00;;;;;;;12.78;100.00;101090.97;5044913;28;20139;-81
2023/08/28 05:42:18;;;;;;;12.20;11.05;;;;;;;12.97;100.00;101081.63;5051389;28;20035;-81
2023/08/28 05:44:45;;;;;;;12.02;10.95;;;;;;;12.99;100.00;101079.69;5034881;28;20111;-81
2023/08/28 05:47:10;;;;;;;12.45;11.25;;;;;;;13.04;100.00;101083.63;5035423;28;20051;-81
2023/08/28 05:49:36;;;;;;;12.65;11.35;;;;;;;12.96;100.00;101091.34;5040055;28;20037;-81
2023/08/28 05:52:01;;;;;;;12.75;11.23;;;;;;;12.98;100.00;101088.56;5049579;28;20082;-81
2023/08/28 05:54:26;;;;;;;14.30;11.48;;;;;;;12.93;100.00;101099.50;5050389;28;20243;-81
2023/08/28 05:56:52;;;;;;;15.18;12.48;;;;;;;12.90;100.00;101097.13;5031146;28;20029;-81
2023/08/28 05:59:17;;;;;;;13.88;11.43;;;;;;;12.93;100.00;101107.44;5057208;28;20097;-81
2023/08/28 06:01:43;;;;;;;13.52;12.13;;;;;;;12.92;100.00;101105.75;5041000;28;20036;-81
2023/08/28 06:04:08;;;;;;;12.98;11.77;;;;;;;12.96;100.00;101095.78;5046333;28;20533;-80
2023/08/28 06:06:34;;;;;;;12.52;11.27;;;;;;;12.94;100.00;101092.44;5048497;28;20033;-81
2023/08/28 06:09:05;;;;;;;13.75;11.77;;;;;;;12.92;100.00;101097.84;5051814;28;20036;-80
2023/08/28 06:11:31;;;;;;;13.55;12.20;;;;;;;12.94;100.00;101098.53;5034147;28;20025;-81
2023/08/28 06:13:58;;;;;;;13.75;12.25;;;;;;;12.96;100.00;101107.19;5037846;28;20189;-81
2023/08/28 06:16:24;;;;;;;12.90;11.70;;;;;;;12.97;100.00;101090.38;5041255;28;20029;-81
2023/08/28 06:18:49;;;;;;;13.82;12.52;;;;;;;12.97;100.00;101089.53;5025670;28;20037;-81
2023/08/28 06:21:15;;;;;;;13.77;12.57;;;;;;;13.00;100.00;101091.94;5029399;28;20022;-81
2023/08/28 06:23:40;;;;;;;13.60;12.23;;;;;;;13.02;100.00;101093.47;5036522;28;20132;-81
2023/08/28 06:26:06;;;;;;;14.23;12.80;;;;;;;13.05;100.00;101095.88;5036072;28;20112;-81
2023/08/28 06:28:31;;;;;;;15.93;14.43;;;;;;;13.11;100.00;101090.09;5039527;28;20116;-81
2023/08/28 06:30:57;;;;;;;16.83;14.43;;;;;;;13.16;100.00;101093.19;5033744;28;20025;-81
2023/08/28 06:33:22;;;;;;;15.75;14.15;;;;;;;13.24;100.00;101107.66;5036224;28;20160;-81
2023/08/28 06:35:48;;;;;;;17.85;15.95;;;;;;;13.28;100.00;101102.00;5038189;28;20017;-81
2023/08/28 06:38:13;;;;;;;17.10;15.40;;;;;;;13.34;100.00;101106.78;5038035;28;20101;-81
2023/08/28 06:40:39;;;;;;;17.17;15.30;;;;;;;13.44;100.00;101107.69;5040376;28;20074;-81
2023/08/28 06:43:04;;;;;;;19.90;14.85;;;;;;;13.53;100.00;101100.81;5038795;28;20405;-81
2023/08/28 06:45:31;;;;;;;17.05;15.40;;;;;;;13.65;100.00;101105.13;5034944;28;20032;-81
2023/08/28 06:47:57;;;;;;;15.40;13.80;;;;;;;13.73;100.00;101097.38;5030577;28;20037;-81
2023/08/28 06:50:23;;;;;;;18.52;14.65;;;;;;;13.88;100.00;101094.41;5032644;28;20431;-81
2023/08/28 06:52:48;;;;;;;15.88;14.18;;;;;;;14.04;100.00;101105.41;5024052;28;20033;-81
2023/08/28 06:55:14;;;;;;;15.05;13.40;;;;;;;14.11;100.00;101111.84;5032977;28;20031;-81
2023/08/28 06:57:39;;;;;;;14.73;12.85;;;;;;;14.19;100.00;101114.66;5031148;28;20406;-80
2023/08/28 07:00:06;;;;;;;13.75;12.45;;;;;;;14.31;100.00;101120.72;5039537;28;20029;-81
2023/08/28 07:02:32;;;;;;;13.52;12.23;;;;;;;14.36;100.00;101119.34;5029593;28;20034;-81
2023/08/28 07:04:57;;;;;;;13.73;12.07;;;;;;;14.41;100.00;101121.63;5031475;28;20098;-80
2023/08/28 07:07:23;;;;;;;12.75;11.55;;;;;;;14.43;100.00;101124.19;5063021;28;20112;-81
2023/08/28 07:09:48;;;;;;;15.38;11.38;;;;;;;14.49;100.00;101129.78;5030248;28;20099;-81
2023/08/28 07:12:13;;;;;;;14.98;11.65;;;;;;;14.51;100.00;101134.94;5040603;28;20068;-81
2023/08/28 07:14:39;;;;;;;14.93;11.93;;;;;;;14.60;100.00;101137.63;5037142;28;20024;-80
2023/08/28 07:17:04;;;;;;;16.35;11.70;;;;;;;14.67;100.00;101136.13;5058240;28;20025;-81
2023/08/28 07:19:30;;;;;;;13.75;11.50;;;;;;;14.76;100.00;101141.59;5032372;28;20510;-81
2023/08/28 07:21:57;;;;;;;12.98;11.68;;;;;;;15.01;100.00;101135.84;5040400;28;20028;-82
2023/08/28 07:24:22;;;;;;;11.95;10.85;;;;;;;15.32;100.00;101141.94;5040162;28;20021;-82
2023/08/28 07:26:48;;;;;;;11.73;10.52;;;;;;;15.58;100.00;101132.47;5022526;28;20048;-82
2023/08/28 07:29:13;;;;;;;11.18;10.07;;;;;;;15.77;100.00;101125.53;5035781;28;20033;-82
2023/08/28 07:31:38;;;;;;;12.38;9.70;;;;;;;16.11;100.00;101124.09;5040887;28;20021;-82
2023/08/28 07:34:04;;;;;;;9.85;8.88;;;;;;;16.37;100.00;101123.47;5049589;28;20401;-82
2023/08/28 07:36:30;;;;;;;9.55;8.50;;;;;;;16.71;100.00;101114.00;5049823;28;20036;-82
2023/08/28 07:38:56;;;;;;;9.18;8.30;;;;;;;17.00;100.00;101121.00;5039439;28;20072;-82
2023/08/28 07:41:21;;;;;;;10.80;7.05;;;;;;;17.14;100.00;101116.03;5039919;28;20037;-82
2023/08/28 07:43:47;;;;;;;9.13;7.35;;;;;;;17.37;100.00;101108.47;5036357;28;20018;-81
2023/08/28 07:46:12;;;;;;;8.35;7.10;;;;;;;17.47;100.00;101114.53;5033496;28;20033;-83
2023/08/28 07:48:38;;;;;;;8.00;7.18;;;;;;;17.56;100.00;101118.13;5028365;28;20041;-82
2023/08/28 07:51:04;;;;;;;7.65;6.85;;;;;;;17.64;100.00;101110.22;5032642;28;20292;-81
2023/08/28 07:53:30;;;;;;;8.85;7.50;;;;;;;17.65;100.00;101116.38;5026488;28;20311;-81
2023/08/28 07:55:55;;;;;;;8.38;7.05;;;;;;;17.71;100.00;101121.13;5026486;28;20032;-81
2023/08/28 07:58:20;;;;;;;9.57;7.60;;;;;;;17.65;100.00;101121.72;5025575;28;20104;-80
2023/08/28 08:00:46;;;;;;;7.85;6.80;;;;;;;17.71;100.00;101115.81;5041342;28;20021;-81
2023/08/28 08:03:11;;;;;;;9.30;7.13;;;;;;;17.75;100.00;101117.16;5032418;28;20100;-81
2023/08/28 08:05:40;;;;;;;6.95;6.35;;;;;;;17.79;100.00;101113.22;5031213;28;20460;-81
2023/08/28 08:08:05;;;;;;;7.30;6.40;;;;;;;17.83;100.00;101122.56;5031693;28;20029;-81
2023/08/28 08:10:32;;;;;;;7.70;6.90;;;;;;;17.90;100.00;101126.28;5035206;28;20032;-81
2023/08/28 08:12:57;;;;;;;8.70;6.50;;;;;;;17.89;99.31;101121.09;5030523;28;20184;-81
2023/08/28 08:15:22;;;;;;;7.07;6.05;;;;;;;17.87;100.00;101125.75;5029860;28;20021;-81
2023/08/28 08:17:48;;;;;;;6.80;6.10;;;;;;;17.84;100.00;101121.56;5038481;28;20037;-81
2023/08/28 08:20:15;;;;;;;6.20;5.68;;;;;;;17.78;100.00;101123.03;5028837;28;20056;-81
2023/08/28 08:22:43;;;;;;;6.80;6.10;;;;;;;17.72;98.75;101118.31;5031928;28;20056;-81
2023/08/28 08:25:10;;;;;;;7.00;6.25;;;;;;;17.62;100.00;101128.19;5038138;28;20051;-80
2023/08/28 08:27:37;;;;;;;10.07;6.65;;;;;;;17.67;100.00;101122.44;5023807;28;20092;-81
2023/08/28 08:30:05;;;;;;;7.28;6.38;;;;;;;17.68;100.00;101122.28;5036737;28;20021;-81
2023/08/28 08:32:30;;;;;;;7.05;6.40;;;;;;;17.64;100.00;101123.53;5022838;28;20095;-81
2023/08/28 08:34:58;;;;;;;8.07;6.90;;;;;;;17.63;100.00;101123.69;5036795;28;20029;-81
2023/08/28 08:37:24;;;;;;;7.45;6.75;;;;;;;17.57;100.00;101130.44;5029747;28;20025;-81
2023/08/28 08:39:49;;;;;;;7.72;6.88;;;;;;;17.61;100.00;101138.94;5029422;28;20024;-81
2023/08/28 08:42:16;;;;;;;6.68;6.00;;;;;;;17.65;99.87;101141.19;5025406;28;20486;-81
2023/08/28 08:44:44;;;;;;;6.80;6.20;;;;;;;17.73;99.64;101138.63;5019199;28;20029;-81
2023/08/28 08:47:10;;;;;;;7.28;5.85;;;;;;;17.82;98.76;101144.84;5039837;28;20037;-81
2023/08/28 08:49:39;;;;;;;6.57;5.88;;;;;;;17.94;98.55;101132.94;5038170;28;20053;-81
2023/08/28 08:52:08;;;;;;;6.10;5.50;;;;;;;17.88;97.23;101138.06;5033679;28;20041;-81
2023/08/28 08:54:39;;;;;;;5.97;5.47;;;;;;;18.00;96.17;101137.66;5029955;28;20389;-81
2023/08/28 08:57:19;;;;;;;6.07;5.38;;;;;;;18.10;97.70;101140.25;5029499;28;20060;-81
2023/08/28 08:59:46;;;;;;;8.10;5.53;;;;;;;18.20;96.40;101137.50;5024735;28;20021;-81
2023/08/28 09:02:12;;;;;;;6.13;5.15;;;;;;;18.19;95.94;101130.50;5035730;28;20052;-81
2023/08/28 09:04:40;;;;;;;6.15;4.40;;;;;;;18.32;95.22;101142.41;5035071;28;20027;-81
2023/08/28 09:07:06;;;;;;;4.78;4.22;;;;;;;18.37;93.52;101139.25;5030495;28;20456;-81
2023/08/28 09:09:32;;;;;;;5.70;4.05;;;;;;;18.45;93.31;101139.34;5021176;28;20033;-81
2023/08/28 09:11:58;;;;;;;7.82;4.20;;;;;;;18.48;93.39;101136.34;5027797;28;20033;-81
2023/08/28 09:14:24;;;;;;;4.25;3.08;;;;;;;18.57;91.25;101127.41;5020559;28;20030;-81
2023/08/28 09:16:49;;;;;;;3.47;3.17;;;;;;;18.61;89.31;101126.09;5030755;28;20013;-81
2023/08/28 09:19:14;;;;;;;3.75;3.05;;;;;;;18.65;88.79;101119.47;5030427;28;20022;-82
2023/08/28 09:21:46;;;;;;;3.17;2.75;;;;;;;18.73;89.46;101126.66;5029337;28;20013;-81
2023/08/28 09:24:11;;;;;;;3.03;2.65;;;;;;;19.02;88.96;101116.47;5039083;28;20028;-81
2023/08/28 09:26:38;;;;;;;4.22;2.83;;;;;;;19.06;85.90;101119.63;5033884;28;20022;-81
2023/08/28 09:29:10;;;;;;;3.00;2.65;;;;;;;19.09;88.16;101119.31;5034953;28;20025;-81
2023/08/28 09:31:39;;;;;;;4.43;2.87;;;;;;;19.32;84.33;101125.72;5028882;28;20462;-81
2023/08/28 09:34:05;;;;;;;3.97;2.40;;;;;;;19.34;84.73;101122.91;5028593;28;20560;-80
2023/08/28 09:36:35;;;;;;;3.85;2.90;;;;;;;19.50;84.23;101127.41;5031431;28;20057;-81
2023/08/28 09:39:03;;;;;;;5.07;2.72;;;;;;;19.43;83.56;101127.25;5060919;28;20381;-81
2023/08/28 09:41:55;;;;;;;4.80;2.65;;;;;;;19.64;85.55;101134.81;5032296;28;20424;-82
2023/08/28 09:44:25;;;;;;;3.38;2.47;;;;;;;19.53;83.43;101127.94;5017221;28;20049;-81
2023/08/28 09:46:50;;;;;;;6.43;3.05;;;;;;;19.63;84.25;101130.50;5034516;28;20049;-81
2023/08/28 09:49:16;;;;;;;3.63;2.90;;;;;;;19.63;83.48;101122.47;5020205;28;20034;-81
2023/08/28 09:51:47;;;;;;;3.80;2.80;;;;;;;19.84;83.30;101138.00;5037426;28;20033;-81
2023/08/28 09:54:16;;;;;;;3.33;3.03;;;;;;;20.26;81.84;101138.63;5033428;28;20539;-82
2023/08/28 09:56:43;;;;;;;3.55;2.40;;;;;;;20.44;77.47;101140.34;5030174;28;20029;-81
2023/08/28 09:59:10;;;;;;;3.10;1.90;;;;;;;20.89;75.64;101139.69;5028642;28;20118;-81
2023/08/28 10:01:37;;;;;;;4.72;2.78;;;;;;;20.59;73.96;101136.78;5039129;28;20412;-82
2023/08/28 10:04:10;;;;;;;3.58;2.70;;;;;;;20.99;76.67;101137.63;5027132;28;20494;-81
2023/08/28 10:06:39;;;;;;;5.88;3.05;;;;;;;21.00;74.85;101146.50;5040589;28;20598;-81
2023/08/28 10:09:09;;;;;;;2.88;2.20;;;;;;;21.31;74.33;101125.13;5028531;28;20038;-81
2023/08/28 10:11:39;;;;;;;2.03;1.38;;;;;;;21.61;71.95;101129.59;5025870;28;20030;-81
2023/08/28 10:14:06;;;;;;;4.57;2.50;;;;;;;21.64;68.62;101126.59;5025523;28;20029;-81
2023/08/28 10:16:40;;;;;;;4.18;1.88;;;;;;;21.95;71.06;101129.16;5027618;28;20030;-81
2023/08/28 10:19:25;;;;;;;2.63;2.42;;;;;;;22.07;73.99;101121.56;5028884;28;20163;-81
2023/08/28 10:21:51;;;;;;;3.75;2.30;;;;;;;21.82;67.99;101119.06;5012941;28;20389;-82
2023/08/28 10:24:17;;;;;;;5.20;2.35;;;;;;;21.88;68.44;101112.97;5015346;28;20056;-81
2023/08/28 10:26:43;;;;;;;3.03;1.50;;;;;;;22.07;67.46;101118.88;5021823;28;20026;-83
2023/08/28 10:29:10;;;;;;;4.22;1.50;;;;;;;22.23;67.67;101121.41;5033809;28;20013;-81
2023/08/28 10:31:44;;;;;;;2.22;1.23;;;;;;;22.27;63.16;101122.69;5031127;28;20025;-81
2023/08/28 10:34:10;;;;;;;2.75;1.80;;;;;;;21.85;65.14;101124.06;5032123;28;20478;-81
2023/08/28 10:36:39;;;;;;;3.85;1.88;;;;;;;21.53;67.28;101129.66;5032410;28;20400;-81
2023/08/28 10:39:05;;;;;;;1.83;1.20;;;;;;;21.79;64.91;101124.78;5028022;28;20025;-81
2023/08/28 10:41:32;;;;;;;3.17;1.60;;;;;;;21.76;65.86;101125.13;5021300;28;20382;-81
2023/08/28 10:44:00;;;;;;;3.30;2.10;;;;;;;21.88;67.48;101129.06;5030261;28;20025;-81
2023/08/28 10:46:28;;;;;;;8.90;2.25;;;;;;;21.76;68.73;101130.50;5024519;28;20040;-81
2023/08/28 10:49:04;;;;;;;3.58;2.30;;;;;;;21.62;71.34;101125.09;5039640;28;20029;-81
2023/08/28 10:51:36;;;;;;;2.58;2.20;;;;;;;21.60;70.67;101125.25;5030179;28;20444;-81
2023/08/28 10:54:09;;;;;;;3.20;2.28;;;;;;;21.33;69.44;101128.47;5034387;28;20151;-81
2023/08/28 10:56:39;;;;;;;3.63;2.60;;;;;;;21.00;69.88;101133.94;5034721;28;20044;-81
2023/08/28 10:59:25;;;;;;;4.25;2.78;;;;;;;21.06;72.45;101127.06;5026378;28;20021;-80
2023/08/28 11:01:58;;;;;;;3.97;2.75;;;;;;;20.86;74.45;101130.16;5028740;28;20612;-79
2023/08/28 11:04:32;;;;;;;4.45;2.45;;;;;;;20.99;72.87;101126.94;5030685;28;20048;-80
2023/08/28 11:06:57;;;;;;;3.15;2.60;;;;;;;21.09;70.48;101124.03;5030497;28;20095;-80
2023/08/28 11:09:28;;;;;;;3.67;2.00;;;;;;;20.94;70.24;101116.75;5035873;28;20477;-81
2023/08/28 11:11:57;;;;;;;3.97;2.40;;;;;;;21.14;68.72;101119.81;5043935;28;20033;-81